createdAt,value
2022-12-20T00:01:32.807Z,66.32
2022-12-20T00:04:05.772Z,60.17
2022-12-20T00:06:35.318Z,60.92
2022-12-20T00:09:05.279Z,63.03
2022-12-20T00:11:32.373Z,65.60
2022-12-20T00:13:59.466Z,59.28
2022-12-20T00:16:28.425Z,64.05
2022-12-20T00:18:58.279Z,69.32
2022-12-20T00:21:26.127Z,61.60
2022-12-20T00:23:53.626Z,62.38
2022-12-20T00:26:23.830Z,63.97
2022-12-20T00:28:52.864Z,65.95
2022-12-20T00:31:21.595Z,64.75
2022-12-20T00:33:50.543Z,68.63
2022-12-20T00:36:18.984Z,66.78
2022-12-20T00:38:48.567Z,69.05
2022-12-20T00:41:19.225Z,60.78
2022-12-20T00:43:46.689Z,78.82
2022-12-20T00:46:15.248Z,61.83
2022-12-20T00:48:42.575Z,64.43
2022-12-20T00:51:21.287Z,67.70
2022-12-20T00:53:48.710Z,73.13
2022-12-20T00:56:17.420Z,77.43
2022-12-20T00:58:45.029Z,66.60
2022-12-20T01:01:41.784Z,68.38
2022-12-20T01:04:08.934Z,67.00
2022-12-20T01:06:37.235Z,67.03
2022-12-20T01:09:05.307Z,69.88
2022-12-20T01:11:37.674Z,66.75
2022-12-20T01:14:10.545Z,64.25
2022-12-20T01:16:41.591Z,67.55
2022-12-20T01:19:11.162Z,74.20
2022-12-20T01:21:44.356Z,62.08
2022-12-20T01:24:17.019Z,68.55
2022-12-20T01:26:44.597Z,70.55
2022-12-20T01:29:12.199Z,66.88
2022-12-20T01:31:39.291Z,59.78
2022-12-20T01:34:06.806Z,64.00
2022-12-20T01:36:35.700Z,65.65
2022-12-20T01:39:06.572Z,67.38
2022-12-20T01:41:34.748Z,63.78
2022-12-20T01:44:26.311Z,57.97
2022-12-20T01:46:54.695Z,64.82
2022-12-20T01:49:28.760Z,64.93
2022-12-20T01:52:21.724Z,65.70
2022-12-20T01:55:04.393Z,63.22
2022-12-20T01:58:01.263Z,62.92
2022-12-20T02:00:29.565Z,63.90
2022-12-20T02:03:00.848Z,56.67
2022-12-20T02:05:28.026Z,62.05
2022-12-20T02:07:57.442Z,62.30
2022-12-20T02:10:29.897Z,66.57
2022-12-20T02:13:11.659Z,59.70
2022-12-20T02:15:38.614Z,68.22
2022-12-20T02:18:27.621Z,65.38
2022-12-20T02:21:06.064Z,68.18
2022-12-20T02:23:43.176Z,63.83
2022-12-20T02:26:42.181Z,66.80
2022-12-20T02:29:35.838Z,67.95
2022-12-20T02:32:20.134Z,70.20
2022-12-20T02:34:47.340Z,70.35
2022-12-20T02:37:14.818Z,69.40
2022-12-20T02:39:44.860Z,69.40
2022-12-20T02:42:15.425Z,68.97
2022-12-20T02:45:16.514Z,70.30
2022-12-20T02:47:52.552Z,67.40
2022-12-20T02:50:38.403Z,69.22
2022-12-20T02:53:07.417Z,70.55
2022-12-20T02:55:46.123Z,69.10
2022-12-20T02:58:25.612Z,62.25
2022-12-20T03:00:56.775Z,63.78
2022-12-20T03:03:24.382Z,72.72
2022-12-20T03:05:54.708Z,71.93
2022-12-20T03:08:23.731Z,66.27
2022-12-20T03:10:52.315Z,64.07
2022-12-20T03:13:20.556Z,72.30
2022-12-20T03:15:56.391Z,67.07
2022-12-20T03:18:23.759Z,70.00
2022-12-20T03:20:50.956Z,70.18
2022-12-20T03:23:18.011Z,63.30
2022-12-20T03:25:45.081Z,69.57
2022-12-20T03:28:19.929Z,71.30
2022-12-20T03:30:47.888Z,75.28
2022-12-20T03:33:15.046Z,73.28
2022-12-20T03:35:43.107Z,70.65
2022-12-20T03:38:10.862Z,73.35
2022-12-20T03:40:38.220Z,67.38
2022-12-20T03:43:05.470Z,68.65
2022-12-20T03:45:32.558Z,82.80
2022-12-20T03:47:59.585Z,69.80
2022-12-20T03:50:29.110Z,69.95
2022-12-20T03:52:56.153Z,71.45
2022-12-20T03:55:23.299Z,73.93
2022-12-20T03:57:50.705Z,69.25
2022-12-20T04:00:28.434Z,78.50
2022-12-20T04:03:10.616Z,82.22
2022-12-20T04:05:37.988Z,79.03
2022-12-20T04:08:07.017Z,74.78
2022-12-20T04:10:54.049Z,71.05
2022-12-20T04:13:21.113Z,67.47
2022-12-20T04:15:48.347Z,70.68
2022-12-20T04:18:16.444Z,74.40
2022-12-20T04:20:44.351Z,66.90
2022-12-20T04:23:20.324Z,72.50
2022-12-20T04:25:48.633Z,69.55
2022-12-20T04:28:17.245Z,64.40
2022-12-20T04:30:45.271Z,64.03
2022-12-20T04:33:15.637Z,60.37
2022-12-20T04:35:43.371Z,64.80
2022-12-20T04:38:10.491Z,64.50
2022-12-20T04:40:37.828Z,63.28
2022-12-20T04:43:07.501Z,71.65
2022-12-20T04:45:34.948Z,76.68
2022-12-20T04:48:28.543Z,64.10
2022-12-20T04:50:50.500Z,77.60
2022-12-20T04:53:36.585Z,74.68
2022-12-20T04:56:03.837Z,81.50
2022-12-20T04:58:31.839Z,72.30
2022-12-20T05:01:00.030Z,80.13
2022-12-20T05:03:32.326Z,76.82
2022-12-20T05:05:59.555Z,77.45
2022-12-20T05:08:26.907Z,77.85
2022-12-20T05:10:54.053Z,77.05
2022-12-20T05:13:21.838Z,75.00
2022-12-20T05:15:56.494Z,72.15
2022-12-20T05:18:28.174Z,83.60
2022-12-20T05:21:19.829Z,84.22
2022-12-20T05:24:08.217Z,73.75
2022-12-20T05:26:48.969Z,80.80
2022-12-20T05:29:18.036Z,79.70
2022-12-20T05:31:45.273Z,78.03
2022-12-20T05:34:12.696Z,81.55
2022-12-20T05:36:41.487Z,81.25
2022-12-20T05:39:08.836Z,82.40
2022-12-20T05:41:40.668Z,78.50
2022-12-20T05:44:08.961Z,76.30
2022-12-20T05:46:38.991Z,87.40
2022-12-20T05:49:11.325Z,83.28
2022-12-20T05:51:38.517Z,75.65
2022-12-20T05:54:25.636Z,86.45
2022-12-20T05:57:11.472Z,94.85
2022-12-20T05:59:40.897Z,87.40
2022-12-20T06:02:15.412Z,81.07
2022-12-20T06:04:43.569Z,77.22
2022-12-20T06:07:20.031Z,78.55
2022-12-20T06:09:50.440Z,92.28
2022-12-20T06:12:19.769Z,90.00
2022-12-20T06:14:47.857Z,82.38
2022-12-20T06:17:15.015Z,82.68
2022-12-20T06:19:42.588Z,75.68
2022-12-20T06:22:11.495Z,79.25
2022-12-20T06:24:55.342Z,80.90
2022-12-20T06:27:26.517Z,80.22
2022-12-20T06:30:15.013Z,88.05
2022-12-20T06:33:05.291Z,84.72
2022-12-20T06:35:32.349Z,87.45
2022-12-20T06:38:00.046Z,79.78
2022-12-20T06:40:30.014Z,84.55
2022-12-20T06:43:00.357Z,92.10
2022-12-20T06:45:28.029Z,85.15
2022-12-20T06:47:57.094Z,86.65
2022-12-20T06:50:24.900Z,87.53
2022-12-20T06:52:52.149Z,88.15
2022-12-20T06:55:19.232Z,88.40
2022-12-20T06:57:47.000Z,78.97
2022-12-20T07:00:15.622Z,86.47
2022-12-20T07:02:42.786Z,80.72
2022-12-20T07:05:13.568Z,86.28
2022-12-20T07:07:50.241Z,88.97
2022-12-20T07:10:22.307Z,87.05
2022-12-20T07:12:58.333Z,93.15
2022-12-20T07:15:33.270Z,104.00
2022-12-20T07:18:30.251Z,88.15
2022-12-20T07:21:05.540Z,83.20
2022-12-20T07:23:41.040Z,85.07
2022-12-20T07:26:14.091Z,87.15
2022-12-20T07:28:47.079Z,88.53
2022-12-20T07:31:32.504Z,88.57
2022-12-20T07:34:00.128Z,85.10
2022-12-20T07:36:43.091Z,84.10
2022-12-20T07:39:28.036Z,83.15
2022-12-20T07:42:03.708Z,76.28
2022-12-20T07:44:44.288Z,91.55
2022-12-20T07:47:30.088Z,81.28
2022-12-20T07:50:07.219Z,91.90
2022-12-20T07:52:43.314Z,89.60
2022-12-20T07:55:12.432Z,92.30
2022-12-20T07:58:00.010Z,87.60
2022-12-20T08:00:30.358Z,77.50
2022-12-20T08:03:07.414Z,92.72
2022-12-20T08:05:42.089Z,89.50
2022-12-20T08:08:10.225Z,99.82
2022-12-20T08:10:44.955Z,82.55
2022-12-20T08:13:16.465Z,97.07
2022-12-20T08:15:46.326Z,88.85
2022-12-20T08:18:16.527Z,86.03
2022-12-20T08:21:08.049Z,99.50
2022-12-20T08:26:15.249Z,87.10
2022-12-20T08:28:46.303Z,84.50
2022-12-20T08:31:16.273Z,80.95
2022-12-20T08:33:49.191Z,83.05
2022-12-20T08:36:20.656Z,93.63
2022-12-20T08:38:51.192Z,85.10
2022-12-20T08:41:29.500Z,88.97
2022-12-20T08:43:59.804Z,99.28
2022-12-20T08:46:40.842Z,82.80
2022-12-20T08:49:11.021Z,82.45
2022-12-20T08:51:41.643Z,79.60
2022-12-20T08:54:24.693Z,81.57
2022-12-20T08:57:03.967Z,77.50
2022-12-20T09:00:00.761Z,88.60
2022-12-20T09:02:34.162Z,95.43
2022-12-20T09:05:05.889Z,87.15
2022-12-20T09:07:44.426Z,82.85
2022-12-20T09:10:17.918Z,81.55
2022-12-20T09:12:51.220Z,84.00
2022-12-20T09:15:28.025Z,90.57
2022-12-20T09:18:18.174Z,86.30
2022-12-20T09:20:51.562Z,89.32
2022-12-20T09:23:34.179Z,85.05
2022-12-20T09:26:23.762Z,84.70
2022-12-20T09:29:03.083Z,89.25
2022-12-20T09:31:35.657Z,90.47
2022-12-20T09:34:12.691Z,90.32
2022-12-20T09:36:45.416Z,66.97
2022-12-20T09:39:19.539Z,88.80
2022-12-20T09:42:04.760Z,86.18
2022-12-20T09:45:00.581Z,80.40
2022-12-20T09:47:36.598Z,79.53
2022-12-20T09:50:28.111Z,89.63
2022-12-20T09:56:26.870Z,91.43
2022-12-20T09:59:25.406Z,99.43
2022-12-20T10:01:56.848Z,92.80
2022-12-20T10:04:34.648Z,98.97
2022-12-20T10:07:43.898Z,97.53
2022-12-20T10:10:49.563Z,98.75
2022-12-20T10:13:42.655Z,86.00
2022-12-20T10:16:42.113Z,89.15
2022-12-20T10:19:35.163Z,94.82
2022-12-20T10:22:40.102Z,85.78
2022-12-20T10:25:25.444Z,91.13
2022-12-20T10:28:10.246Z,93.40
2022-12-20T10:30:42.697Z,89.93
2022-12-20T10:33:28.917Z,92.78
2022-12-20T10:36:52.275Z,101.15
2022-12-20T10:39:55.312Z,82.00
2022-12-20T10:42:49.907Z,104.28
2022-12-20T10:45:22.559Z,87.63
2022-12-20T10:48:05.288Z,100.97
2022-12-20T10:50:40.493Z,94.82
2022-12-20T10:53:32.372Z,86.13
2022-12-20T10:56:29.554Z,91.75
2022-12-20T10:59:21.545Z,92.65
2022-12-20T11:05:10.910Z,93.20
2022-12-20T11:08:37.773Z,94.63
2022-12-20T11:11:20.200Z,79.28
2022-12-20T11:13:57.795Z,84.95
2022-12-20T11:16:39.243Z,78.40
2022-12-20T11:19:44.186Z,92.55
2022-12-20T11:22:42.070Z,90.88
2022-12-20T11:26:15.899Z,95.68
2022-12-20T11:29:19.028Z,95.72
2022-12-20T11:32:24.731Z,85.07
2022-12-20T11:35:17.540Z,82.77
2022-12-20T11:38:09.711Z,84.57
2022-12-20T11:41:28.321Z,82.30
2022-12-20T11:44:26.222Z,82.57
2022-12-20T11:47:05.848Z,77.70
2022-12-20T11:49:48.471Z,81.47
2022-12-20T11:52:33.236Z,85.85
2022-12-20T11:55:16.251Z,82.95
2022-12-20T11:58:20.776Z,81.93
2022-12-20T12:01:13.143Z,99.43
2022-12-20T12:03:50.822Z,90.63
2022-12-20T12:07:06.787Z,92.95
2022-12-20T12:10:08.360Z,84.15
2022-12-20T12:13:06.397Z,99.85
2022-12-20T12:16:05.381Z,96.97
2022-12-20T12:18:48.315Z,87.60
2022-12-20T12:21:42.533Z,92.18
2022-12-20T12:24:53.930Z,99.80
2022-12-20T12:27:30.487Z,95.25
2022-12-20T12:30:12.695Z,98.07
2022-12-20T12:33:25.446Z,94.68
2022-12-20T12:36:22.332Z,93.85
2022-12-20T12:39:18.449Z,88.25
2022-12-20T12:42:06.728Z,96.75
2022-12-20T12:44:48.848Z,89.90
2022-12-20T12:47:39.402Z,91.78
2022-12-20T12:50:38.548Z,81.18
2022-12-20T12:53:37.532Z,85.32
2022-12-20T12:56:46.117Z,85.78
2022-12-20T12:59:35.166Z,86.47
2022-12-20T13:02:07.151Z,82.82
2022-12-20T13:05:30.952Z,80.90
2022-12-20T13:08:08.735Z,85.57
2022-12-20T13:10:39.014Z,83.57
2022-12-20T13:13:34.642Z,77.43
2022-12-20T13:16:19.625Z,77.90
2022-12-20T13:19:01.086Z,82.43
2022-12-20T13:21:38.784Z,81.45
2022-12-20T13:24:55.966Z,91.35
2022-12-20T13:27:50.063Z,83.60
2022-12-20T13:30:36.684Z,83.70
2022-12-20T13:33:45.684Z,76.35
2022-12-20T13:36:34.548Z,76.65
2022-12-20T13:39:24.411Z,83.25
2022-12-20T13:42:17.490Z,83.47
2022-12-20T13:44:54.876Z,80.18
2022-12-20T13:47:37.307Z,89.10
2022-12-20T13:50:41.141Z,84.30
2022-12-20T13:53:24.819Z,91.95
2022-12-20T13:55:57.703Z,93.47
2022-12-20T13:58:35.296Z,95.28
2022-12-20T14:01:19.005Z,87.80
2022-12-20T14:03:50.772Z,79.30
2022-12-20T14:06:26.964Z,84.50
2022-12-20T14:08:56.976Z,80.13
2022-12-20T14:11:27.238Z,90.65
2022-12-20T14:14:10.009Z,90.13
2022-12-20T14:16:40.577Z,85.82
2022-12-20T14:19:17.309Z,83.95
2022-12-20T14:21:46.509Z,99.97
2022-12-20T14:24:22.070Z,90.53
2022-12-20T14:26:53.919Z,82.50
2022-12-20T14:29:29.259Z,88.15
2022-12-20T14:32:09.727Z,82.55
2022-12-20T14:34:54.751Z,84.47
2022-12-20T14:37:35.243Z,86.93
2022-12-20T14:40:11.922Z,86.15
2022-12-20T14:42:50.955Z,85.55
2022-12-20T14:45:29.258Z,87.93
2022-12-20T14:48:10.967Z,88.32
2022-12-20T14:50:51.429Z,86.55
2022-12-20T14:53:35.952Z,81.97
2022-12-20T14:56:08.229Z,70.50
2022-12-20T14:58:44.701Z,85.22
2022-12-20T15:01:25.146Z,91.90
2022-12-20T15:03:59.037Z,80.90
2022-12-20T15:06:51.151Z,91.22
2022-12-20T15:09:25.331Z,89.22
2022-12-20T15:11:57.078Z,81.50
2022-12-20T15:14:41.251Z,76.97
2022-12-20T15:17:16.159Z,81.20
2022-12-20T15:19:44.115Z,81.55
2022-12-20T15:22:30.732Z,81.43
2022-12-20T15:24:58.708Z,73.28
2022-12-20T15:27:26.374Z,80.20
2022-12-20T15:29:54.204Z,79.05
2022-12-20T15:32:30.112Z,90.60
2022-12-20T15:34:57.847Z,83.20
2022-12-20T15:37:31.040Z,90.00
2022-12-20T15:40:07.051Z,89.18
2022-12-20T15:42:37.844Z,95.35
2022-12-20T15:45:15.018Z,90.55
2022-12-20T15:47:50.228Z,88.50
2022-12-20T15:50:24.161Z,93.80
2022-12-20T15:52:54.565Z,87.43
2022-12-20T15:55:34.359Z,75.28
2022-12-20T15:58:10.117Z,83.85
2022-12-20T16:00:43.765Z,85.55
2022-12-20T16:03:26.950Z,79.55
2022-12-20T16:05:56.725Z,82.75
2022-12-20T16:08:24.611Z,89.25
2022-12-20T16:11:00.539Z,98.57
2022-12-20T16:13:28.239Z,85.03
2022-12-20T16:16:04.074Z,88.30
2022-12-20T16:18:35.204Z,77.35
2022-12-20T16:21:12.423Z,88.07
2022-12-20T16:23:50.189Z,81.80
2022-12-20T16:26:22.548Z,83.70
2022-12-20T16:28:51.889Z,84.13
2022-12-20T16:31:33.380Z,85.53
2022-12-20T16:34:17.556Z,88.03
2022-12-20T16:36:46.379Z,84.40
2022-12-20T16:39:13.519Z,96.65
2022-12-20T16:41:43.677Z,83.88
2022-12-20T16:44:17.247Z,96.97
2022-12-20T16:46:45.824Z,85.60
2022-12-20T16:49:19.712Z,87.75
2022-12-20T16:51:49.158Z,95.50
2022-12-20T16:54:21.780Z,86.22
2022-12-20T16:56:55.308Z,80.20
2022-12-20T16:59:23.912Z,87.22
2022-12-20T17:01:56.313Z,84.03
2022-12-20T17:04:24.329Z,90.00
2022-12-20T17:06:51.437Z,98.20
2022-12-20T17:09:20.193Z,98.20
2022-12-20T17:11:47.977Z,93.05
2022-12-20T17:14:15.045Z,86.38
2022-12-20T17:16:42.628Z,85.85
2022-12-20T17:19:10.874Z,96.88
2022-12-20T17:24:29.812Z,81.32
2022-12-20T17:26:56.965Z,90.32
2022-12-20T17:29:23.990Z,89.57
2022-12-20T17:31:51.309Z,89.00
2022-12-20T17:34:27.253Z,83.28
2022-12-20T17:36:56.793Z,86.88
2022-12-20T17:39:25.497Z,90.22
2022-12-20T17:41:54.906Z,91.82
2022-12-20T17:44:24.565Z,87.50
2022-12-20T17:46:53.248Z,91.80
2022-12-20T17:49:20.598Z,90.82
2022-12-20T17:51:48.111Z,87.70
2022-12-20T17:54:38.566Z,94.60
2022-12-20T17:57:21.562Z,74.82
2022-12-20T17:59:51.587Z,86.07
2022-12-20T18:02:25.539Z,78.32
2022-12-20T18:04:53.993Z,87.63
2022-12-20T18:07:29.745Z,95.57
2022-12-20T18:10:03.335Z,91.72
2022-12-20T18:12:37.423Z,86.32
2022-12-20T18:15:09.252Z,85.72
2022-12-20T18:17:38.755Z,76.07
2022-12-20T18:20:09.910Z,70.57
2022-12-20T18:22:49.269Z,78.15
2022-12-20T18:25:25.958Z,73.10
2022-12-20T18:28:04.552Z,73.28
2022-12-20T18:30:38.128Z,68.75
2022-12-20T18:33:14.438Z,70.90
2022-12-20T18:36:11.600Z,71.22
2022-12-20T18:38:42.380Z,68.55
2022-12-20T18:41:14.350Z,63.78
2022-12-20T18:43:41.658Z,67.95
2022-12-20T18:46:19.868Z,66.95
2022-12-20T18:48:47.696Z,59.78
2022-12-20T18:51:20.415Z,62.08
2022-12-20T18:53:49.143Z,70.93
2022-12-20T18:56:21.827Z,64.07
2022-12-20T18:58:52.348Z,62.40
2022-12-20T19:01:28.614Z,70.35
2022-12-20T19:03:56.339Z,72.07
2022-12-20T19:06:23.828Z,68.35
2022-12-20T19:08:51.484Z,79.40
2022-12-20T19:11:24.090Z,75.63
2022-12-20T19:13:52.573Z,74.88
2022-12-20T19:16:22.452Z,80.72
2022-12-20T19:18:50.231Z,79.78
2022-12-20T19:21:24.109Z,78.13
2022-12-20T19:23:57.589Z,73.22
2022-12-20T19:26:30.041Z,79.80
2022-12-20T19:28:57.971Z,69.28
2022-12-20T19:31:31.218Z,72.80
2022-12-20T19:34:04.572Z,68.32
2022-12-20T19:36:37.205Z,72.80
2022-12-20T19:39:08.228Z,83.13
2022-12-20T19:41:36.180Z,73.88
2022-12-20T19:44:05.031Z,72.75
2022-12-20T19:46:32.526Z,70.50
2022-12-20T19:49:00.750Z,78.03
2022-12-20T19:51:29.163Z,79.07
2022-12-20T19:53:59.622Z,76.65
2022-12-20T19:56:30.825Z,68.50
2022-12-20T20:01:28.088Z,63.78
2022-12-20T20:03:57.719Z,70.50
2022-12-20T20:06:25.076Z,65.95
2022-12-20T20:08:52.405Z,67.82
2022-12-20T20:11:21.388Z,64.90
2022-12-20T20:13:48.724Z,70.28
2022-12-20T20:16:21.806Z,60.78
2022-12-20T20:18:50.291Z,67.57
2022-12-20T20:21:21.989Z,73.10
2022-12-20T20:23:51.300Z,71.50
2022-12-20T20:26:22.522Z,64.25
2022-12-20T20:31:18.884Z,71.38
2022-12-20T20:33:46.621Z,67.43
2022-12-20T20:36:16.670Z,66.38
2022-12-20T20:38:44.197Z,69.85
2022-12-20T20:41:12.263Z,67.90
2022-12-20T20:43:39.865Z,72.95
2022-12-20T20:46:09.566Z,74.07
2022-12-20T20:48:37.350Z,70.95
2022-12-20T20:51:05.350Z,70.47
2022-12-20T20:53:34.122Z,74.53
2022-12-20T20:56:03.325Z,61.28
2022-12-20T20:58:31.021Z,67.47
2022-12-20T21:01:00.800Z,65.80
2022-12-20T21:03:30.288Z,68.50
2022-12-20T21:08:45.762Z,68.38
2022-12-20T21:11:13.420Z,78.80
2022-12-20T21:13:40.720Z,81.22
2022-12-20T21:16:13.239Z,69.88
2022-12-20T21:18:40.659Z,71.55
2022-12-20T21:21:10.573Z,64.18
2022-12-20T21:23:39.171Z,75.43
2022-12-20T21:26:07.666Z,68.00
2022-12-20T21:28:35.738Z,71.18
2022-12-20T21:31:05.711Z,70.50
2022-12-20T21:33:33.127Z,70.13
2022-12-20T21:36:06.018Z,70.68
2022-12-20T21:38:33.469Z,61.88
2022-12-20T21:41:12.454Z,71.97
2022-12-20T21:43:39.834Z,64.60
2022-12-20T21:46:11.378Z,62.08
2022-12-20T21:48:39.554Z,78.00
2022-12-20T21:51:18.289Z,62.75
2022-12-20T21:53:54.207Z,75.57
2022-12-20T21:56:22.636Z,65.22
2022-12-20T21:58:50.917Z,66.88
2022-12-20T22:01:21.384Z,67.90
2022-12-20T22:03:53.722Z,64.60
2022-12-20T22:06:21.675Z,69.97
2022-12-20T22:08:48.779Z,68.00
2022-12-20T22:11:18.423Z,63.05
2022-12-20T22:13:46.486Z,71.07
2022-12-20T22:16:21.872Z,54.22
2022-12-20T22:18:50.670Z,62.65
2022-12-20T22:21:19.007Z,70.20
2022-12-20T22:23:46.177Z,66.18
2022-12-20T22:26:22.991Z,71.68
2022-12-20T22:28:52.391Z,66.57
2022-12-20T22:31:20.534Z,61.35
2022-12-20T22:33:48.126Z,66.82
2022-12-20T22:36:16.567Z,66.45
2022-12-20T22:38:43.726Z,64.30
2022-12-20T22:41:15.541Z,68.07
2022-12-20T22:43:44.695Z,66.18
2022-12-20T22:48:59.009Z,68.72
2022-12-20T22:51:27.780Z,60.05
2022-12-20T22:53:58.207Z,58.40
2022-12-20T22:56:26.191Z,63.30
2022-12-20T22:58:53.444Z,63.05
2022-12-20T23:01:21.777Z,69.00
2022-12-20T23:03:50.331Z,62.90
2022-12-20T23:06:21.029Z,65.82
2022-12-20T23:08:49.124Z,62.47
2022-12-20T23:11:45.641Z,73.32
2022-12-20T23:14:40.219Z,67.28
2022-12-20T23:17:13.709Z,64.90
2022-12-20T23:20:06.749Z,61.22
2022-12-20T23:22:46.324Z,62.92
2022-12-20T23:25:19.606Z,67.53
2022-12-20T23:27:50.246Z,62.00
2022-12-20T23:30:24.009Z,68.00
2022-12-20T23:32:54.281Z,60.83
2022-12-20T23:35:25.065Z,69.68
2022-12-20T23:37:53.157Z,60.88
2022-12-20T23:40:27.609Z,63.92
2022-12-20T23:43:05.271Z,62.17
2022-12-20T23:45:36.203Z,63.47
2022-12-20T23:48:13.506Z,59.97
2022-12-20T23:50:51.456Z,61.03
2022-12-20T23:53:22.145Z,62.92
2022-12-20T23:56:03.739Z,54.50
2022-12-20T23:58:38.666Z,60.63
